Time;durP1;ratioP1;P1;durP2;ratioP2;P2;SDS_P1;SDS_P2;PMS_P1;PMS_P2;Temp;Humidity;BMP_temperature;BMP_pressure;BME280_temperature;BME280_humidity;BME280_pressure;Samples;Min_cycle;Max_cycle;Signal;HPM_P1;HPM_P2
2022/03/16 00:01:24;;;;;;;17.17;11.20;;;3.60;99.90;;;;;;5056449;28;20710;-47
2022/03/16 00:03:50;;;;;;;14.20;11.30;;;3.60;99.90;;;;;;5056701;28;20195;-43
2022/03/16 00:06:15;;;;;;;16.03;11.33;;;3.60;99.90;;;;;;5056304;28;20184;-43
2022/03/16 00:08:41;;;;;;;18.07;12.07;;;3.60;99.90;;;;;;5056138;28;20295;-43
2022/03/16 00:11:06;;;;;;;20.23;13.77;;;3.60;99.90;;;;;;5056269;28;20226;-42
2022/03/16 00:13:33;;;;;;;18.73;12.97;;;3.60;99.90;;;;;;5038481;28;20174;-44
2022/03/16 00:15:58;;;;;;;15.37;11.43;;;3.60;99.90;;;;;;5038299;28;20172;-43
2022/03/16 00:18:24;;;;;;;16.50;12.27;;;3.60;99.90;;;;;;5056355;28;20356;-42
2022/03/16 00:20:49;;;;;;;16.13;11.40;;;3.60;99.90;;;;;;5056558;28;20181;-43
2022/03/16 00:23:15;;;;;;;18.20;11.80;;;3.50;99.90;;;;;;5056672;28;20172;-43
2022/03/16 00:25:48;;;;;;;15.77;11.47;;;3.50;99.90;;;;;;5038120;28;20250;-44
2022/03/16 00:28:14;;;;;;;16.90;12.33;;;3.50;99.90;;;;;;5056359;28;20592;-46
2022/03/16 00:30:39;;;;;;;16.47;11.93;;;3.40;99.90;;;;;;5056202;28;20168;-46
2022/03/16 00:33:05;;;;;;;17.33;12.20;;;3.40;99.90;;;;;;5057419;28;20176;-45
2022/03/16 00:35:31;;;;;;;21.10;12.73;;;3.30;99.90;;;;;;5063682;28;20184;-46
2022/03/16 00:37:57;;;;;;;16.90;11.90;;;3.40;99.90;;;;;;5038124;28;20203;-45
2022/03/16 00:40:22;;;;;;;20.17;12.43;;;3.40;99.90;;;;;;5055699;28;20548;-47
2022/03/16 00:42:48;;;;;;;18.77;12.70;;;3.40;99.90;;;;;;5055639;28;20179;-45
2022/03/16 00:45:14;;;;;;;19.40;13.27;;;3.40;99.90;;;;;;5055891;28;20173;-45
2022/03/16 00:47:39;;;;;;;18.47;12.67;;;3.40;99.90;;;;;;5055550;28;20192;-45
2022/03/16 00:50:06;;;;;;;18.87;13.23;;;3.50;99.90;;;;;;5055477;28;20291;-45
2022/03/16 00:52:31;;;;;;;19.97;13.57;;;3.50;99.90;;;;;;5055738;28;20234;-45
2022/03/16 00:54:57;;;;;;;22.47;14.40;;;3.50;99.90;;;;;;5037010;28;20188;-46
2022/03/16 00:57:22;;;;;;;21.77;14.00;;;3.50;99.90;;;;;;5055327;28;20594;-45
2022/03/16 00:59:48;;;;;;;21.67;14.07;;;3.50;99.90;;;;;;5038290;28;20215;-47
2022/03/16 01:02:14;;;;;;;19.97;13.97;;;3.50;99.90;;;;;;5056093;28;20661;-43
2022/03/16 01:04:39;;;;;;;24.47;14.40;;;3.50;99.90;;;;;;5055561;28;20262;-42
2022/03/16 01:07:05;;;;;;;19.70;14.43;;;3.50;99.90;;;;;;5037210;28;20184;-45
2022/03/16 01:09:31;;;;;;;20.50;14.87;;;3.40;99.90;;;;;;5055103;28;20606;-45
2022/03/16 01:11:57;;;;;;;21.93;14.77;;;3.40;99.90;;;;;;5055082;28;20165;-44
2022/03/16 01:14:23;;;;;;;23.40;15.63;;;3.30;99.90;;;;;;5055100;28;20232;-44
2022/03/16 01:16:48;;;;;;;23.90;14.67;;;3.30;99.90;;;;;;5055285;28;20184;-46
2022/03/16 01:19:15;;;;;;;19.83;13.47;;;3.30;99.90;;;;;;5054970;28;20184;-45
2022/03/16 01:21:44;;;;;;;23.03;13.83;;;3.30;99.90;;;;;;5055174;28;20184;-46
2022/03/16 01:24:10;;;;;;;19.67;13.83;;;3.30;99.90;;;;;;5036971;28;20180;-46
2022/03/16 01:26:36;;;;;;;23.83;14.63;;;3.30;99.90;;;;;;5055134;28;20175;-46
2022/03/16 01:29:02;;;;;;;21.77;13.07;;;3.30;99.90;;;;;;5054601;28;20261;-43
2022/03/16 01:31:28;;;;;;;20.50;13.40;;;3.30;99.90;;;;;;5037016;28;20172;-47
2022/03/16 01:33:54;;;;;;;19.80;12.73;;;3.30;99.90;;;;;;5054604;28;20186;-47
2022/03/16 01:36:20;;;;;;;19.37;13.20;;;3.30;99.90;;;;;;5054666;28;20183;-46
2022/03/16 01:38:46;;;;;;;20.47;13.27;;;3.30;99.90;;;;;;5054479;28;20610;-46
2022/03/16 01:41:12;;;;;;;19.53;12.47;;;3.30;99.90;;;;;;5054582;28;20176;-45
2022/03/16 01:43:38;;;;;;;20.70;13.23;;;3.30;99.90;;;;;;5054799;28;20586;-46
2022/03/16 01:46:04;;;;;;;20.00;12.83;;;3.30;99.90;;;;;;5054689;28;20192;-47
2022/03/16 01:48:30;;;;;;;18.60;12.83;;;3.30;99.90;;;;;;5054546;28;20212;-43
2022/03/16 01:50:56;;;;;;;18.63;12.77;;;3.30;99.90;;;;;;5054364;28;20567;-44
2022/03/16 01:53:21;;;;;;;22.40;13.37;;;3.20;99.90;;;;;;5054253;28;20172;-43
2022/03/16 01:55:47;;;;;;;24.13;12.70;;;3.30;99.90;;;;;;5036164;28;20198;-43
2022/03/16 01:58:13;;;;;;;18.83;12.50;;;3.30;99.90;;;;;;5054205;28;20212;-43
2022/03/16 02:00:40;;;;;;;18.93;12.73;;;3.30;99.90;;;;;;5036338;28;20180;-44
2022/03/16 02:03:08;;;;;;;22.20;12.27;;;3.20;99.90;;;;;;5054082;28;20180;-43
2022/03/16 02:05:37;;;;;;;20.90;12.87;;;3.30;99.90;;;;;;5053659;28;20184;-42
2022/03/16 02:08:08;;;;;;;18.30;12.83;;;3.20;99.90;;;;;;5036090;28;20279;-44
2022/03/16 02:10:34;;;;;;;21.00;12.80;;;3.20;99.90;;;;;;5054050;28;20690;-44
2022/03/16 02:13:00;;;;;;;22.43;13.50;;;3.20;99.90;;;;;;5053940;28;20184;-44
2022/03/16 02:15:26;;;;;;;21.73;13.70;;;3.30;99.90;;;;;;5053990;28;20594;-43
2022/03/16 02:17:54;;;;;;;18.73;12.87;;;3.20;99.90;;;;;;5036048;28;20199;-45
2022/03/16 02:20:21;;;;;;;19.60;12.70;;;3.20;99.90;;;;;;5035919;28;20176;-45
2022/03/16 02:22:54;;;;;;;21.77;13.77;;;3.20;99.90;;;;;;5054619;28;20184;-47
2022/03/16 02:25:20;;;;;;;20.70;13.00;;;3.20;99.90;;;;;;5053750;28;20168;-47
2022/03/16 02:27:46;;;;;;;20.33;12.97;;;3.20;99.90;;;;;;5054092;28;20192;-43
2022/03/16 02:30:12;;;;;;;20.37;13.27;;;3.10;99.90;;;;;;5035815;28;20204;-43
2022/03/16 02:32:37;;;;;;;19.57;13.33;;;3.10;99.90;;;;;;5054044;28;20327;-44
2022/03/16 02:35:03;;;;;;;20.37;13.03;;;3.00;99.90;;;;;;5053979;28;20262;-43
2022/03/16 02:37:29;;;;;;;20.87;13.00;;;3.00;99.90;;;;;;5053542;28;20196;-44
2022/03/16 02:39:55;;;;;;;22.70;13.97;;;3.00;99.90;;;;;;5053915;28;20559;-44
2022/03/16 02:42:22;;;;;;;19.40;13.60;;;3.00;99.90;;;;;;5054123;28;20177;-43
2022/03/16 02:44:47;;;;;;;19.50;13.53;;;3.00;99.90;;;;;;5053825;28;20179;-43
2022/03/16 02:47:13;;;;;;;19.87;13.10;;;3.00;99.90;;;;;;5053473;28;20200;-42
2022/03/16 02:49:38;;;;;;;17.83;12.87;;;3.00;99.90;;;;;;5053337;28;20200;-43
2022/03/16 02:52:11;;;;;;;19.03;12.77;;;2.90;99.90;;;;;;5053361;28;20180;-43
2022/03/16 02:54:37;;;;;;;19.37;13.03;;;2.90;99.90;;;;;;5054100;28;20179;-42
2022/03/16 02:57:03;;;;;;;20.93;14.47;;;3.00;99.90;;;;;;5035471;28;20176;-44
2022/03/16 02:59:28;;;;;;;20.63;14.40;;;3.00;99.90;;;;;;5053530;28;20224;-43
2022/03/16 03:01:54;;;;;;;18.60;13.73;;;3.00;99.90;;;;;;5054409;28;20192;-44
2022/03/16 03:04:20;;;;;;;21.63;14.17;;;3.10;99.90;;;;;;5053274;28;20180;-45
2022/03/16 03:06:45;;;;;;;25.30;14.93;;;3.10;99.90;;;;;;5036072;28;20184;-44
2022/03/16 03:09:11;;;;;;;20.13;14.50;;;3.10;99.90;;;;;;5053832;28;20207;-43
2022/03/16 03:11:36;;;;;;;19.90;13.63;;;3.10;99.90;;;;;;5035553;28;20267;-43
2022/03/16 03:14:02;;;;;;;21.77;14.17;;;3.00;99.90;;;;;;5053568;28;20225;-45
2022/03/16 03:16:28;;;;;;;20.77;14.33;;;3.10;99.90;;;;;;5053569;28;20628;-43
2022/03/16 03:18:54;;;;;;;22.97;13.97;;;3.10;99.90;;;;;;5057129;28;20203;-45
2022/03/16 03:21:19;;;;;;;18.57;14.03;;;3.10;99.90;;;;;;5057232;28;20185;-42
2022/03/16 03:23:45;;;;;;;20.00;13.27;;;3.10;99.90;;;;;;5057410;28;20188;-42
2022/03/16 03:26:13;;;;;;;19.70;13.83;;;3.10;99.90;;;;;;5057135;28;20568;-43
2022/03/16 03:28:38;;;;;;;21.37;14.03;;;3.10;99.90;;;;;;5039103;28;20219;-42
2022/03/16 03:31:04;;;;;;;22.50;13.73;;;3.10;99.90;;;;;;5057382;28;20543;-44
2022/03/16 03:33:31;;;;;;;15.80;9.00;;;3.10;99.90;;;;;;5022694;28;20195;-43
2022/03/16 03:35:57;;;;;;;15.23;10.37;;;3.10;99.90;;;;;;5057237;28;20184;-44
2022/03/16 03:38:23;;;;;;;20.40;13.13;;;3.10;99.90;;;;;;5039191;28;20622;-43
2022/03/16 03:40:48;;;;;;;18.33;13.07;;;3.10;99.90;;;;;;5039468;28;20192;-44
2022/03/16 03:43:14;;;;;;;18.63;13.03;;;3.10;99.90;;;;;;5056793;28;20226;-43
2022/03/16 03:45:40;;;;;;;21.43;13.63;;;3.10;99.90;;;;;;5057095;28;20188;-42
2022/03/16 03:48:05;;;;;;;19.80;13.47;;;3.00;99.90;;;;;;5038729;28;20616;-43
2022/03/16 03:50:31;;;;;;;20.53;13.70;;;3.00;99.90;;;;;;5056665;28;20190;-43
2022/03/16 03:52:57;;;;;;;21.17;13.33;;;2.90;99.90;;;;;;5038884;28;20184;-46
2022/03/16 03:55:23;;;;;;;19.17;13.83;;;2.90;99.90;;;;;;5056597;28;20196;-41
2022/03/16 03:57:49;;;;;;;19.63;12.63;;;2.80;99.90;;;;;;5038622;28;20231;-43
2022/03/16 04:00:15;;;;;;;19.73;13.20;;;2.80;99.90;;;;;;5056829;28;20220;-41
2022/03/16 04:02:48;;;;;;;19.20;12.80;;;2.70;99.90;;;;;;5039447;28;20179;-42
2022/03/16 04:05:15;;;;;;;20.33;13.23;;;2.70;99.90;;;;;;5057745;28;20602;-41
2022/03/16 04:07:40;;;;;;;19.67;13.13;;;2.70;99.90;;;;;;5057652;28;20200;-44
2022/03/16 04:10:07;;;;;;;18.73;12.63;;;2.60;99.90;;;;;;5057846;28;20208;-43
2022/03/16 04:12:32;;;;;;;18.50;12.83;;;2.70;99.90;;;;;;5057358;28;20183;-42
2022/03/16 04:14:58;;;;;;;23.57;13.10;;;2.70;99.90;;;;;;5057527;28;20537;-42
2022/03/16 04:17:23;;;;;;;19.77;13.80;;;2.80;99.90;;;;;;5057330;28;20200;-42
2022/03/16 04:19:49;;;;;;;20.43;13.50;;;2.70;99.90;;;;;;5056361;28;20544;-44
2022/03/16 04:22:15;;;;;;;22.03;14.83;;;2.80;99.90;;;;;;5056962;28;20205;-45
2022/03/16 04:24:40;;;;;;;20.23;13.40;;;2.70;99.90;;;;;;5056847;28;20179;-45
2022/03/16 04:27:06;;;;;;;23.33;13.60;;;2.80;99.90;;;;;;5056765;28;20188;-47
2022/03/16 04:29:31;;;;;;;20.30;13.07;;;2.80;99.90;;;;;;5056644;28;20316;-46
2022/03/16 04:31:58;;;;;;;19.90;12.67;;;2.70;99.90;;;;;;5056641;28;20176;-45
2022/03/16 04:34:24;;;;;;;21.57;12.97;;;2.80;99.90;;;;;;5038235;28;20191;-44
2022/03/16 04:36:49;;;;;;;21.00;12.97;;;2.80;99.90;;;;;;5056029;28;20183;-41
2022/03/16 04:39:16;;;;;;;20.83;13.60;;;2.80;99.90;;;;;;5055953;28;20187;-42
2022/03/16 04:41:42;;;;;;;21.73;14.63;;;2.80;99.90;;;;;;5055953;28;20215;-42
2022/03/16 04:44:09;;;;;;;21.13;14.07;;;2.80;99.90;;;;;;5055922;28;20184;-43
2022/03/16 04:46:35;;;;;;;21.50;11.97;;;2.80;99.90;;;;;;5056016;28;20274;-42
2022/03/16 04:49:01;;;;;;;20.00;13.80;;;2.80;99.90;;;;;;5055417;28;20211;-43
2022/03/16 04:51:26;;;;;;;21.43;13.77;;;2.80;99.90;;;;;;5055823;28;20661;-43
2022/03/16 04:53:52;;;;;;;20.33;12.80;;;2.80;99.90;;;;;;5055476;28;20181;-43
2022/03/16 04:56:18;;;;;;;21.37;14.03;;;2.70;99.90;;;;;;5055421;28;20211;-41
2022/03/16 04:58:43;;;;;;;20.53;12.50;;;2.70;99.90;;;;;;5055605;28;20214;-42
2022/03/16 05:01:09;;;;;;;21.83;12.93;;;2.80;99.90;;;;;;5055689;28;20191;-43
2022/03/16 05:03:34;;;;;;;22.27;14.50;;;2.70;99.90;;;;;;5055259;28;20234;-41
2022/03/16 05:06:00;;;;;;;21.03;12.97;;;2.70;99.90;;;;;;5037521;28;20202;-41
2022/03/16 05:08:26;;;;;;;18.53;12.00;;;2.70;99.90;;;;;;5055075;28;20215;-43
2022/03/16 05:10:51;;;;;;;18.37;12.33;;;2.80;99.90;;;;;;5055434;28;20590;-41
2022/03/16 05:13:17;;;;;;;20.03;13.67;;;2.80;99.90;;;;;;5055391;28;20180;-43
2022/03/16 05:15:42;;;;;;;22.40;14.00;;;2.90;99.90;;;;;;5037264;28;20212;-46
2022/03/16 05:18:08;;;;;;;19.67;12.30;;;2.90;99.90;;;;;;5055212;28;20207;-46
2022/03/16 05:20:34;;;;;;;20.27;13.20;;;2.90;99.90;;;;;;5054979;28;20184;-46
2022/03/16 05:22:59;;;;;;;22.93;13.50;;;2.90;99.90;;;;;;5055156;28;20325;-46
2022/03/16 05:25:30;;;;;;;23.47;14.67;;;2.90;99.90;;;;;;5054977;28;20224;-44
2022/03/16 05:27:56;;;;;;;21.53;12.97;;;2.80;99.90;;;;;;5036966;28;20727;-47
2022/03/16 05:30:27;;;;;;;21.57;12.43;;;2.80;99.90;;;;;;5036870;28;20230;-47
2022/03/16 05:33:01;;;;;;;19.63;12.87;;;2.80;99.90;;;;;;5034790;28;20246;-45
2022/03/16 05:35:45;;;;;;;18.70;11.63;;;2.80;99.90;;;;;;5036620;28;20182;-45
2022/03/16 05:38:31;;;;;;;18.77;10.13;;;2.90;99.90;;;;;;5034697;28;20223;-44
2022/03/16 05:41:03;;;;;;;20.67;12.70;;;2.90;99.90;;;;;;5052970;28;20204;-46
2022/03/16 05:43:30;;;;;;;13.50;7.77;;;2.90;99.90;;;;;;5036886;28;20527;-45
2022/03/16 05:45:59;;;;;;;24.93;14.13;;;2.90;99.90;;;;;;5036231;28;20191;-46
2022/03/16 05:48:30;;;;;;;21.77;13.63;;;2.90;99.90;;;;;;5054552;28;20221;-46
2022/03/16 05:51:07;;;;;;;24.87;15.17;;;2.90;99.90;;;;;;5036404;28;20187;-46
2022/03/16 05:53:45;;;;;;;26.67;15.73;;;2.90;99.90;;;;;;5053649;28;20201;-47
2022/03/16 05:56:29;;;;;;;26.33;15.97;;;2.90;99.90;;;;;;5034546;28;20207;-44
2022/03/16 05:59:28;;;;;;;28.43;16.13;;;2.80;99.90;;;;;;5031853;28;20215;-45
2022/03/16 06:02:23;;;;;;;27.70;15.93;;;2.80;99.90;;;;;;5054057;28;20177;-46
2022/03/16 06:04:57;;;;;;;27.27;17.00;;;2.80;99.90;;;;;;5028466;28;20202;-46
2022/03/16 06:07:22;;;;;;;27.80;15.63;;;2.80;99.90;;;;;;5036608;28;20203;-44
2022/03/16 06:09:48;;;;;;;28.40;16.83;;;2.80;99.90;;;;;;5036278;28;20221;-44
2022/03/16 06:12:15;;;;;;;29.13;17.43;;;2.70;99.90;;;;;;5038378;28;20192;-44
2022/03/16 06:14:41;;;;;;;31.30;19.17;;;2.80;99.90;;;;;;5054411;28;20179;-43
2022/03/16 06:17:06;;;;;;;33.17;18.83;;;2.80;99.90;;;;;;5053982;28;20174;-43
2022/03/16 06:19:32;;;;;;;38.17;20.30;;;2.90;99.90;;;;;;5054133;28;20241;-44
2022/03/16 06:21:57;;;;;;;38.97;19.07;;;2.90;99.90;;;;;;5055590;28;20180;-44
2022/03/16 06:24:23;;;;;;;37.10;20.30;;;3.00;99.90;;;;;;5037264;28;20187;-44
2022/03/16 06:26:48;;;;;;;37.67;20.73;;;3.00;99.90;;;;;;5036024;28;20187;-46
2022/03/16 06:29:14;;;;;;;31.80;18.00;;;3.10;99.90;;;;;;5055277;28;20215;-46
2022/03/16 06:31:40;;;;;;;35.63;19.13;;;3.10;99.90;;;;;;5053994;28;20183;-45
2022/03/16 06:34:05;;;;;;;33.27;17.27;;;3.10;99.90;;;;;;5054434;28;20260;-45
2022/03/16 06:36:31;;;;;;;37.63;20.97;;;3.20;99.90;;;;;;5037411;28;20536;-44
2022/03/16 06:38:57;;;;;;;29.83;17.33;;;3.20;99.90;;;;;;5036639;28;20261;-44
2022/03/16 06:41:23;;;;;;;34.87;18.40;;;3.30;99.90;;;;;;5054173;28;20245;-44
2022/03/16 06:43:48;;;;;;;34.63;18.27;;;3.40;99.90;;;;;;5054132;28;20190;-44
2022/03/16 06:46:14;;;;;;;32.53;17.17;;;3.50;99.90;;;;;;5054256;28;20563;-45
2022/03/16 06:48:40;;;;;;;34.03;18.00;;;3.50;99.90;;;;;;5054077;28;20214;-46
2022/03/16 06:51:06;;;;;;;32.13;18.20;;;3.60;99.90;;;;;;5054166;28;20543;-46
2022/03/16 06:53:32;;;;;;;30.53;17.07;;;3.70;99.90;;;;;;5053597;28;20178;-48
2022/03/16 06:55:57;;;;;;;22.37;13.13;;;3.80;99.90;;;;;;5054626;28;20574;-45
2022/03/16 06:58:23;;;;;;;33.03;17.27;;;3.90;99.90;;;;;;5053634;28;20707;-45
2022/03/16 07:00:49;;;;;;;33.63;16.23;;;4.00;99.90;;;;;;5057691;28;20179;-47
2022/03/16 07:03:14;;;;;;;26.23;15.57;;;4.10;99.90;;;;;;5053281;28;20179;-45
2022/03/16 07:05:45;;;;;;;25.30;14.03;;;4.10;99.90;;;;;;5035469;28;20585;-45
2022/03/16 07:08:13;;;;;;;28.40;15.33;;;4.30;99.90;;;;;;5053523;28;20200;-43
2022/03/16 07:10:41;;;;;;;26.70;15.13;;;4.30;99.90;;;;;;5053418;28;20176;-42
2022/03/16 07:13:11;;;;;;;24.83;12.73;;;4.40;99.90;;;;;;5053171;28;20175;-43
2022/03/16 07:15:37;;;;;;;28.70;17.73;;;4.50;99.90;;;;;;5053477;28;20190;-44
2022/03/16 07:18:03;;;;;;;30.70;17.40;;;4.60;99.90;;;;;;5053085;28;20220;-44
2022/03/16 07:20:30;;;;;;;28.13;16.43;;;4.70;99.90;;;;;;5053040;28;20560;-43
2022/03/16 07:23:02;;;;;;;19.20;11.33;;;4.70;99.90;;;;;;5035179;28;20238;-44
2022/03/16 07:25:28;;;;;;;26.03;16.53;;;4.80;99.90;;;;;;5053337;28;20211;-44
2022/03/16 07:27:54;;;;;;;23.30;11.87;;;4.90;99.90;;;;;;5053265;28;20238;-44
2022/03/16 07:30:19;;;;;;;17.90;11.23;;;5.00;99.90;;;;;;5052921;28;20683;-43
2022/03/16 07:32:45;;;;;;;23.23;11.80;;;5.00;99.90;;;;;;5035136;28;20600;-44
2022/03/16 07:35:10;;;;;;;20.70;12.60;;;5.10;99.90;;;;;;5052961;28;20177;-44
2022/03/16 07:37:37;;;;;;;10.70;7.03;;;5.20;99.90;;;;;;5018637;28;20704;-45
2022/03/16 07:40:04;;;;;;;11.67;7.67;;;5.30;99.90;;;;;;5018769;28;20184;-44
2022/03/16 07:42:30;;;;;;;19.50;13.13;;;5.30;99.90;;;;;;5035252;28;20714;-44
2022/03/16 07:44:57;;;;;;;20.40;12.33;;;5.40;99.90;;;;;;5052928;28;20181;-45
2022/03/16 07:47:25;;;;;;;10.50;6.17;;;5.50;99.90;;;;;;5052858;28;20243;-44
2022/03/16 07:49:50;;;;;;;16.67;9.53;;;5.60;99.90;;;;;;5052812;28;20284;-45
2022/03/16 07:52:16;;;;;;;17.53;10.50;;;5.60;99.90;;;;;;5052821;28;20238;-45
2022/03/16 07:54:42;;;;;;;20.03;12.60;;;5.70;99.90;;;;;;5052911;28;20184;-44
2022/03/16 07:57:08;;;;;;;19.53;12.93;;;5.80;99.90;;;;;;5052751;28;20208;-45
2022/03/16 07:59:34;;;;;;;12.00;7.57;;;5.90;99.90;;;;;;5052841;28;20188;-45
2022/03/16 08:01:59;;;;;;;18.00;11.73;;;6.00;99.90;;;;;;5052780;28;20192;-45
2022/03/16 08:04:25;;;;;;;17.50;9.87;;;6.00;99.90;;;;;;5054045;28;20188;-45
2022/03/16 08:06:51;;;;;;;20.40;12.73;;;6.10;99.90;;;;;;5038353;28;20715;-47
2022/03/16 08:09:17;;;;;;;18.67;11.93;;;6.10;99.90;;;;;;5056763;28;20212;-46
2022/03/16 08:11:42;;;;;;;12.23;8.50;;;6.20;99.90;;;;;;5056647;28;20202;-46
2022/03/16 08:14:08;;;;;;;18.13;11.57;;;6.30;99.90;;;;;;5056839;28;20175;-43
2022/03/16 08:16:34;;;;;;;19.03;9.77;;;6.30;99.90;;;;;;5038268;28;20190;-45
2022/03/16 08:19:00;;;;;;;12.47;7.60;;;6.40;99.90;;;;;;5038195;28;20201;-46
2022/03/16 08:21:25;;;;;;;19.30;12.63;;;6.40;99.90;;;;;;5038695;28;20548;-45
2022/03/16 08:23:53;;;;;;;12.13;7.77;;;6.50;99.90;;;;;;5056648;28;20172;-47
2022/03/16 08:26:19;;;;;;;11.73;7.53;;;6.50;99.90;;;;;;5056865;28;20176;-45
2022/03/16 08:32:07;;;;;;;11.80;7.50;;;6.70;99.90;;;;;;5058463;28;20163;-46
2022/03/16 08:34:33;;;;;;;18.47;13.07;;;6.70;99.90;;;;;;5056586;28;20182;-47
2022/03/16 08:37:00;;;;;;;20.90;13.30;;;6.80;99.90;;;;;;5055800;28;20260;-46
2022/03/16 08:39:26;;;;;;;18.37;11.63;;;6.90;99.90;;;;;;5055820;28;20263;-47
2022/03/16 08:41:52;;;;;;;18.33;11.10;;;7.00;99.90;;;;;;5055699;28;20280;-47
2022/03/16 08:44:17;;;;;;;16.93;10.40;;;7.10;99.90;;;;;;5055982;28;20187;-46
2022/03/16 08:46:43;;;;;;;18.37;11.93;;;7.20;99.90;;;;;;5055886;28;20193;-47
2022/03/16 08:49:09;;;;;;;17.00;11.97;;;7.30;99.90;;;;;;5055545;28;20713;-48
2022/03/16 08:51:34;;;;;;;10.10;6.07;;;7.40;99.90;;;;;;5037804;28;20187;-47
2022/03/16 08:54:00;;;;;;;14.27;8.77;;;7.50;99.90;;;;;;5055926;28;20181;-48
2022/03/16 08:56:25;;;;;;;14.87;9.70;;;7.60;99.90;;;;;;5055568;28;20271;-46
2022/03/16 08:58:51;;;;;;;16.90;11.93;;;7.70;99.90;;;;;;5055556;28;20213;-48
2022/03/16 09:01:17;;;;;;;17.97;12.80;;;7.70;99.90;;;;;;5055967;28;20272;-48
2022/03/16 09:03:43;;;;;;;17.17;12.40;;;7.90;99.90;;;;;;5037851;28;20558;-44
2022/03/16 09:06:08;;;;;;;16.50;9.90;;;7.90;99.90;;;;;;5056017;28;20674;-44
2022/03/16 09:08:34;;;;;;;17.97;12.00;;;8.00;99.90;;;;;;5057540;28;20216;-47
2022/03/16 09:11:00;;;;;;;18.20;11.67;;;8.10;99.90;;;;;;5056975;28;20258;-46
2022/03/16 09:13:27;;;;;;;11.50;6.73;;;8.20;99.90;;;;;;5056900;28;20615;-43
2022/03/16 09:15:52;;;;;;;17.90;12.53;;;8.30;99.90;;;;;;5037366;28;20234;-45
2022/03/16 09:18:18;;;;;;;8.07;4.97;;;8.30;99.90;;;;;;5055619;28;20199;-45
2022/03/16 09:20:45;;;;;;;17.13;12.07;;;8.50;99.90;;;;;;5055461;28;20188;-43
2022/03/16 09:23:10;;;;;;;16.80;11.70;;;8.50;99.90;;;;;;5055455;28;20204;-42
2022/03/16 09:25:36;;;;;;;14.33;9.50;;;8.60;99.90;;;;;;5055057;28;20207;-45
2022/03/16 09:28:02;;;;;;;17.47;11.77;;;8.70;99.90;;;;;;5054820;28;20192;-46
2022/03/16 09:30:28;;;;;;;16.83;12.00;;;8.80;99.90;;;;;;5036979;28;20273;-45
2022/03/16 09:32:57;;;;;;;15.43;9.97;;;8.90;99.90;;;;;;5037678;28;20372;-46
2022/03/16 09:35:24;;;;;;;14.70;9.80;;;9.00;99.90;;;;;;5054728;28;20177;-45
2022/03/16 09:37:50;;;;;;;17.03;13.03;;;9.10;99.90;;;;;;5054612;28;20275;-45
2022/03/16 09:40:17;;;;;;;19.23;12.20;;;9.20;99.90;;;;;;5037246;28;20181;-46
2022/03/16 09:42:45;;;;;;;16.87;12.03;;;9.30;99.90;;;;;;5036764;28;20188;-45
2022/03/16 09:45:17;;;;;;;13.80;9.33;;;9.40;99.90;;;;;;5054927;28;20599;-46
2022/03/16 09:47:44;;;;;;;16.70;11.77;;;9.50;99.90;;;;;;5055719;28;20599;-46
2022/03/16 09:50:10;;;;;;;16.30;11.17;;;9.60;99.90;;;;;;5054673;28;20200;-46
2022/03/16 09:52:37;;;;;;;17.63;11.27;;;9.70;99.90;;;;;;5054974;28;20237;-44
2022/03/16 09:55:05;;;;;;;16.60;12.17;;;9.80;99.90;;;;;;5053459;28;20205;-47
2022/03/16 09:57:31;;;;;;;15.60;11.77;;;9.80;99.90;;;;;;5036607;28;20564;-46
2022/03/16 09:59:56;;;;;;;13.03;8.80;;;10.00;99.90;;;;;;5054390;28;20193;-47
2022/03/16 10:02:22;;;;;;;16.00;10.63;;;10.10;99.90;;;;;;5036525;28;20273;-47
2022/03/16 10:04:48;;;;;;;15.63;11.70;;;10.20;99.90;;;;;;5054493;28;20191;-47
2022/03/16 10:08:15;;;;;;;14.23;10.50;;;10.30;99.90;;;;;;5038842;28;20214;-47
2022/03/16 10:13:26;;;;;;;13.20;8.13;;;10.50;99.90;;;;;;5054586;28;20167;-48
2022/03/16 10:15:55;;;;;;;12.83;9.33;;;10.60;99.90;;;;;;5054802;28;20178;-47
2022/03/16 10:18:25;;;;;;;13.47;9.63;;;10.60;99.90;;;;;;5054554;28;20186;-45
2022/03/16 10:20:52;;;;;;;12.70;9.27;;;10.70;99.90;;;;;;5036517;28;20230;-47
2022/03/16 10:23:24;;;;;;;11.10;7.10;;;10.80;99.90;;;;;;5054068;28;20172;-47
2022/03/16 10:25:53;;;;;;;11.60;8.13;;;10.90;99.90;;;;;;5054201;28;20187;-47
2022/03/16 10:28:21;;;;;;;11.00;6.80;;;10.90;99.90;;;;;;5035247;28;20202;-46
2022/03/16 10:31:05;;;;;;;8.63;6.70;;;11.00;99.90;;;;;;5054032;28;20171;-47
2022/03/16 10:33:33;;;;;;;9.03;4.80;;;11.00;99.90;;;;;;5054110;28;20171;-48
2022/03/16 10:36:07;;;;;;;11.07;8.37;;;11.10;99.90;;;;;;5035788;28;20180;-47
2022/03/16 10:38:39;;;;;;;12.63;9.13;;;11.10;99.90;;;;;;5053836;28;20252;-46
2022/03/16 10:46:52;;;;;;;11.83;8.67;;;11.40;99.90;;;;;;5054007;28;20536;-47
2022/03/16 10:49:21;;;;;;;8.03;5.33;;;11.50;99.90;;;;;;5053480;28;20679;-47
2022/03/16 10:52:05;;;;;;;12.13;7.10;;;11.70;99.90;;;;;;5053611;28;20203;-45
2022/03/16 10:54:35;;;;;;;11.60;9.03;;;11.80;99.90;;;;;;5053566;28;20262;-46
2022/03/16 10:57:02;;;;;;;14.07;8.27;;;11.80;99.90;;;;;;5035389;28;20271;-47
2022/03/16 10:59:33;;;;;;;11.37;8.20;;;11.90;99.90;;;;;;5035470;28;20183;-46
2022/03/16 11:02:14;;;;;;;11.67;8.70;;;11.90;99.90;;;;;;5053278;28;20198;-47
2022/03/16 11:04:42;;;;;;;11.00;8.27;;;12.10;99.90;;;;;;5035465;28;20222;-48
2022/03/16 11:07:07;;;;;;;10.37;6.77;;;12.20;99.90;;;;;;5053925;28;20203;-46
2022/03/16 11:09:35;;;;;;;12.23;9.90;;;12.20;99.90;;;;;;5036278;28;20687;-46
2022/03/16 11:14:51;;;;;;;10.63;8.47;;;12.20;99.90;;;;;;5054523;28;20591;-47
2022/03/16 11:17:17;;;;;;;12.00;8.80;;;12.20;99.90;;;;;;5053878;28;20200;-44
2022/03/16 11:19:46;;;;;;;11.27;8.70;;;12.30;99.90;;;;;;5053974;28;20226;-46
2022/03/16 11:22:19;;;;;;;11.93;8.57;;;12.30;99.90;;;;;;5054185;28;20190;-47
2022/03/16 11:24:49;;;;;;;11.10;7.53;;;12.40;99.90;;;;;;5054264;28;20168;-46
2022/03/16 11:27:30;;;;;;;11.10;8.27;;;12.50;99.90;;;;;;5035920;28;20611;-47
2022/03/16 11:30:16;;;;;;;10.63;6.27;;;12.60;99.90;;;;;;5053998;28;20203;-47
2022/03/16 11:32:48;;;;;;;9.87;8.17;;;12.60;99.90;;;;;;5054067;28;20184;-44
2022/03/16 11:35:17;;;;;;;11.50;9.03;;;12.60;99.90;;;;;;5053907;28;20549;-45
2022/03/16 11:37:51;;;;;;;8.67;6.53;;;12.60;99.90;;;;;;5054087;28;20579;-46
2022/03/16 11:40:20;;;;;;;10.00;7.00;;;12.60;99.90;;;;;;5058957;28;20175;-45
2022/03/16 11:43:04;;;;;;;12.30;9.33;;;12.70;99.90;;;;;;5059358;28;20567;-47
2022/03/16 11:45:57;;;;;;;11.43;7.43;;;12.80;99.90;;;;;;5058833;28;20559;-47
2022/03/16 11:48:31;;;;;;;11.57;8.77;;;12.90;99.90;;;;;;5057813;28;20200;-46
2022/03/16 11:51:14;;;;;;;9.70;7.40;;;13.00;99.90;;;;;;5057815;28;20635;-47
2022/03/16 11:56:36;;;;;;;11.57;7.63;;;13.00;99.90;;;;;;5057857;28;20659;-47
2022/03/16 11:59:17;;;;;;;10.27;7.77;;;13.10;99.90;;;;;;5041645;28;20585;-47
2022/03/16 12:01:48;;;;;;;9.13;6.80;;;13.10;99.90;;;;;;5039893;28;20184;-47
2022/03/16 12:04:29;;;;;;;11.17;8.30;;;13.10;99.90;;;;;;5057853;28;20287;-45
2022/03/16 12:07:05;;;;;;;18.07;5.53;;;13.20;99.90;;;;;;5057185;28;20260;-47
2022/03/16 12:09:52;;;;;;;10.40;7.10;;;13.20;99.90;;;;;;5038800;28;20570;-45
2022/03/16 12:15:32;;;;;;;9.80;7.83;;;13.40;99.90;;;;;;5057003;28;20207;-45
2022/03/16 12:17:58;;;;;;;9.80;7.07;;;13.40;99.90;;;;;;5038818;28;20195;-43
2022/03/16 12:20:30;;;;;;;10.00;7.63;;;13.40;99.90;;;;;;5056992;28;20760;-45
2022/03/16 12:22:56;;;;;;;7.60;6.17;;;13.40;99.90;;;;;;5056544;28;20234;-43
2022/03/16 12:25:26;;;;;;;10.90;7.87;;;13.50;99.90;;;;;;5056458;28;20208;-43
2022/03/16 12:31:07;;;;;;;9.67;7.40;;;13.70;99.90;;;;;;5056559;28;20544;-45
2022/03/16 12:33:39;;;;;;;7.63;6.00;;;13.70;99.90;;;;;;5055754;28;20192;-44
2022/03/16 12:36:07;;;;;;;16.67;8.87;;;13.70;99.90;;;;;;5056677;28;20636;-44
2022/03/16 12:38:35;;;;;;;13.83;7.20;;;13.80;99.90;;;;;;5056350;28;20242;-46
2022/03/16 12:43:49;;;;;;;8.83;7.80;;;13.70;99.90;;;;;;5057653;28;20325;-44
2022/03/16 12:46:32;;;;;;;9.23;8.10;;;13.70;99.90;;;;;;5056421;28;20230;-45
2022/03/16 12:49:06;;;;;;;8.27;6.53;;;13.60;99.90;;;;;;5038088;28;20212;-44
2022/03/16 12:51:33;;;;;;;9.70;7.27;;;13.60;99.90;;;;;;5056010;28;20608;-44
2022/03/16 12:53:59;;;;;;;9.77;7.80;;;13.60;99.90;;;;;;5056350;28;20243;-43
2022/03/16 12:56:25;;;;;;;9.13;7.30;;;13.60;99.90;;;;;;5057146;28;20199;-44
2022/03/16 12:58:52;;;;;;;8.30;7.20;;;13.70;99.90;;;;;;5056435;28;20208;-45
2022/03/16 13:01:19;;;;;;;7.23;6.03;;;13.70;99.90;;;;;;5056724;28;20177;-45
2022/03/16 13:03:45;;;;;;;8.73;6.27;;;13.70;99.90;;;;;;5056145;28;20195;-44
2022/03/16 13:06:18;;;;;;;10.43;7.87;;;13.60;99.90;;;;;;5038014;28;20195;-44
2022/03/16 13:08:52;;;;;;;9.47;7.73;;;13.60;99.90;;;;;;5055938;28;20212;-46